TAF Text Data
IDs:
Format:
Raw Decoded Include METAR

Data at: 0029 UTC 19 Nov 2018

TAF for:KMRB (Martinsburg/E West V, WV, US) issued at 2346 UTC 18 Nov 2018
Text:KMRB 182346Z 1900/1924 15005KT P6SM BKN150
Forecast period:0000 to 0600 UTC 19 November 2018
Forecast type:FROM: standard forecast or significant change
Winds:from the SSE (150 degrees) at 6 MPH (5 knots; 2.6 m/s)
Visibility:6 or more sm (10+ km)
Ceiling:15000 feet AGL
Clouds: broken clouds at 15000 feet AGL
Text:FM190600 VRB03KT 4SM BR SCT025 BKN150
Forecast period:0600 to 1400 UTC 19 November 2018
Forecast type:FROM: standard forecast or significant change
Winds:variable direction winds at 3 MPH (3 knots; 1.5 m/s)
Visibility: 4 sm ( 6 km)
Ceiling:15000 feet AGL
Clouds: scattered clouds at 2500 feet AGL, broken clouds at 15000 feet AGL
Weather:BR (mist)
Text:FM191400 VRB03KT P6SM BKN050 OVC130
Forecast period:1400 UTC 19 November 2018 to 0000 UTC 20 November 2018
Forecast type:FROM: standard forecast or significant change
Winds:variable direction winds at 3 MPH (3 knots; 1.5 m/s)
Visibility:6 or more sm (10+ km)
Ceiling:5000 feet AGL
Clouds: broken clouds at 5000 feet AGL, overcast cloud deck at 13000 feet AGL